createdAt,value
2019-02-07T00:00:50.898Z,16.50
2019-02-07T00:03:38.383Z,16.93
2019-02-07T00:06:26.071Z,17.27
2019-02-07T00:09:13.904Z,17.13
2019-02-07T00:12:01.562Z,16.70
2019-02-07T00:14:49.155Z,16.63
2019-02-07T00:17:37.161Z,16.70
2019-02-07T00:20:25.160Z,15.67
2019-02-07T00:23:12.788Z,14.50
2019-02-07T00:26:00.467Z,16.60
2019-02-07T00:28:48.320Z,15.80
2019-02-07T00:31:36.248Z,17.27
2019-02-07T00:34:23.957Z,15.17
2019-02-07T00:37:11.745Z,14.60
2019-02-07T00:39:59.668Z,16.23
2019-02-07T00:42:47.592Z,16.93
2019-02-07T00:45:35.220Z,17.27
2019-02-07T00:48:22.962Z,17.37
2019-02-07T00:51:10.656Z,18.43
2019-02-07T00:53:58.160Z,18.30
2019-02-07T00:56:46.017Z,16.53
2019-02-07T00:59:33.976Z,16.57
2019-02-07T01:02:21.708Z,17.83
2019-02-07T01:05:10.393Z,17.57
2019-02-07T01:07:58.377Z,16.53
2019-02-07T01:10:46.076Z,14.80
2019-02-07T01:13:33.992Z,15.77
2019-02-07T01:16:21.879Z,15.07
2019-02-07T01:19:09.680Z,15.23
2019-02-07T01:21:57.614Z,13.90
2019-02-07T01:24:45.432Z,12.83
2019-02-07T01:27:33.121Z,14.50
2019-02-07T01:30:21.832Z,14.10
2019-02-07T01:33:09.492Z,15.20
2019-02-07T01:35:57.720Z,15.10
2019-02-07T01:38:45.611Z,16.17
2019-02-07T01:41:33.519Z,12.10
2019-02-07T01:44:21.229Z,17.93
2019-02-07T01:47:09.444Z,15.87
2019-02-07T01:49:57.152Z,15.90
2019-02-07T01:52:45.092Z,9.90
2019-02-07T01:55:33.096Z,14.17
2019-02-07T01:58:21.334Z,11.40
2019-02-07T02:01:08.975Z,17.10
2019-02-07T02:03:56.638Z,15.60
2019-02-07T02:06:44.625Z,12.47
2019-02-07T02:09:32.516Z,15.17
2019-02-07T02:12:20.183Z,14.83
2019-02-07T02:15:08.332Z,14.90
2019-02-07T02:17:56.405Z,15.40
2019-02-07T02:20:44.320Z,12.83
2019-02-07T02:23:32.285Z,16.50
2019-02-07T02:26:19.865Z,16.20
2019-02-07T02:29:07.763Z,12.20
2019-02-07T02:31:55.459Z,15.33
2019-02-07T02:34:43.135Z,13.60
2019-02-07T02:37:30.907Z,14.50
2019-02-07T02:40:18.775Z,11.77
2019-02-07T02:43:06.436Z,11.57
2019-02-07T02:45:54.137Z,15.20
2019-02-07T02:48:42.005Z,11.43
2019-02-07T02:51:29.920Z,14.13
2019-02-07T02:54:43.167Z,15.73
2019-02-07T02:57:31.487Z,13.47
2019-02-07T03:00:22.825Z,13.43
2019-02-07T03:03:32.724Z,15.33
2019-02-07T03:06:44.387Z,14.53
2019-02-07T03:09:54.585Z,14.37
2019-02-07T03:13:00.425Z,16.20
2019-02-07T03:16:13.379Z,16.63
2019-02-07T03:19:20.111Z,16.73
2019-02-07T03:22:20.153Z,11.70
2019-02-07T03:25:29.960Z,11.10
2019-02-07T03:28:39.287Z,12.83
2019-02-07T03:31:48.686Z,13.63
2019-02-07T03:34:54.604Z,15.43
2019-02-07T03:38:14.119Z,14.70
2019-02-07T03:41:19.597Z,8.50
2019-02-07T03:44:23.099Z,9.30
2019-02-07T03:47:42.551Z,10.47
2019-02-07T03:50:55.408Z,12.87
2019-02-07T03:53:57.649Z,9.67
2019-02-07T03:57:10.609Z,12.27
2019-02-07T04:00:17.431Z,12.10
2019-02-07T04:03:27.177Z,15.57
2019-02-07T04:06:36.654Z,11.67
2019-02-07T04:10:01.810Z,12.93
2019-02-07T04:13:14.487Z,15.80
2019-02-07T04:16:15.476Z,15.63
2019-02-07T04:19:19.123Z,14.40
2019-02-07T04:22:18.837Z,16.90
2019-02-07T04:25:37.945Z,14.37
2019-02-07T04:28:48.052Z,13.27
2019-02-07T04:31:46.767Z,14.00
2019-02-07T04:35:08.999Z,13.50
2019-02-07T04:38:14.581Z,13.93
2019-02-07T04:41:20.329Z,12.80
2019-02-07T04:44:27.324Z,14.03
2019-02-07T04:47:32.990Z,12.80
2019-02-07T04:50:43.122Z,12.83
2019-02-07T04:53:53.033Z,9.10
2019-02-07T04:56:58.563Z,10.00
2019-02-07T05:00:04.224Z,10.33
2019-02-07T05:03:10.073Z,11.73
2019-02-07T05:06:06.631Z,15.40
2019-02-07T05:09:07.997Z,14.83
2019-02-07T05:12:02.084Z,14.03
2019-02-07T05:15:07.830Z,9.57
2019-02-07T05:18:12.144Z,14.83
2019-02-07T05:21:08.603Z,10.23
2019-02-07T05:24:12.905Z,13.30
2019-02-07T05:27:18.071Z,11.80
2019-02-07T05:30:33.126Z,14.17
2019-02-07T05:33:38.685Z,14.33
2019-02-07T05:36:54.809Z,9.53
2019-02-07T05:40:00.544Z,11.80
2019-02-07T05:42:59.852Z,12.50
2019-02-07T05:46:04.282Z,17.23
2019-02-07T05:49:20.578Z,13.23
2019-02-07T05:52:30.256Z,16.50
2019-02-07T05:55:57.880Z,9.60
2019-02-07T05:59:08.761Z,14.87
2019-02-07T06:02:04.403Z,17.20
2019-02-07T06:05:09.602Z,13.70
2019-02-07T06:08:25.846Z,15.07
2019-02-07T06:11:48.084Z,13.57
2019-02-07T06:14:54.198Z,13.70
2019-02-07T06:18:01.010Z,15.13
2019-02-07T06:21:00.084Z,8.97
2019-02-07T06:24:10.137Z,17.60
2019-02-07T06:27:15.348Z,12.73
2019-02-07T06:30:10.488Z,12.40
2019-02-07T06:33:17.381Z,17.70
2019-02-07T06:36:16.469Z,13.33
2019-02-07T06:39:15.920Z,15.37
2019-02-07T06:42:29.755Z,13.43
2019-02-07T06:45:35.511Z,14.90
2019-02-07T06:49:00.704Z,14.87
2019-02-07T06:52:21.566Z,12.43
2019-02-07T06:55:37.809Z,14.67
2019-02-07T06:58:43.795Z,16.23
2019-02-07T07:02:08.697Z,9.80
2019-02-07T07:05:13.971Z,15.03
2019-02-07T07:08:26.876Z,15.13
2019-02-07T07:11:32.403Z,12.63
2019-02-07T07:14:27.724Z,11.87
2019-02-07T07:17:37.479Z,14.30
2019-02-07T07:20:43.264Z,14.17
2019-02-07T07:23:49.113Z,15.10
2019-02-07T07:26:54.982Z,13.60
2019-02-07T07:30:14.260Z,16.80
2019-02-07T07:33:36.455Z,14.30
2019-02-07T07:36:43.724Z,12.93
2019-02-07T07:39:46.017Z,13.77
2019-02-07T07:42:52.635Z,15.90
2019-02-07T07:46:18.024Z,18.15
2019-02-07T07:49:27.652Z,6.70
2019-02-07T07:52:26.538Z,10.60
2019-02-07T07:55:32.222Z,5.20
2019-02-07T07:58:37.810Z,9.67
2019-02-07T08:01:43.767Z,7.97
2019-02-07T08:04:51.114Z,7.20
2019-02-07T08:08:16.264Z,7.47
2019-02-07T08:11:23.662Z,8.43
2019-02-07T08:14:39.625Z,8.90
2019-02-07T08:17:49.376Z,12.00
2019-02-07T08:20:54.886Z,6.57
2019-02-07T08:23:51.756Z,10.97
2019-02-07T08:27:17.272Z,6.37
2019-02-07T08:30:35.034Z,7.67
2019-02-07T08:33:32.961Z,11.17
2019-02-07T08:36:38.596Z,13.57
2019-02-07T08:39:45.894Z,5.17
2019-02-07T08:43:08.197Z,7.33
2019-02-07T08:46:13.789Z,5.00
2019-02-07T08:49:11.222Z,7.80
2019-02-07T08:52:16.832Z,5.70
2019-02-07T08:55:23.061Z,8.17
2019-02-07T08:58:39.183Z,6.10
2019-02-07T09:01:45.745Z,5.70
2019-02-07T09:04:52.275Z,8.07
2019-02-07T09:08:10.882Z,8.80
2019-02-07T09:11:30.164Z,6.27
2019-02-07T09:14:43.041Z,7.47
2019-02-07T09:17:49.875Z,11.07
2019-02-07T09:20:55.339Z,9.10
2019-02-07T09:24:02.275Z,7.83
2019-02-07T09:27:07.771Z,6.63
2019-02-07T09:30:30.509Z,4.70
2019-02-07T09:33:37.286Z,7.17
2019-02-07T09:36:35.159Z,8.40
2019-02-07T09:39:45.133Z,7.90
2019-02-07T09:42:43.184Z,5.07
2019-02-07T09:45:53.409Z,7.70
2019-02-07T09:48:59.137Z,5.23
2019-02-07T09:52:05.126Z,4.83
2019-02-07T09:55:11.179Z,6.70
2019-02-07T09:58:21.120Z,4.23
2019-02-07T10:01:42.726Z,6.70
2019-02-07T10:04:39.532Z,5.90
2019-02-07T10:07:46.416Z,4.90
2019-02-07T10:10:42.774Z,6.63
2019-02-07T10:13:45.045Z,7.00
2019-02-07T10:16:47.729Z,7.00
2019-02-07T10:19:48.029Z,7.50
2019-02-07T10:23:11.066Z,17.33
2019-02-07T10:26:15.749Z,17.27
2019-02-07T10:29:26.404Z,17.90
2019-02-07T10:32:42.701Z,15.20
2019-02-07T10:35:46.527Z,18.13
2019-02-07T10:38:42.148Z,18.03
2019-02-07T10:41:39.547Z,16.03
2019-02-07T10:44:55.436Z,17.40
2019-02-07T10:48:00.967Z,15.13
2019-02-07T10:51:11.008Z,18.90
2019-02-07T10:54:10.912Z,16.77
2019-02-07T10:57:20.355Z,15.60
2019-02-07T11:00:47.284Z,11.07
2019-02-07T11:03:53.042Z,16.33
2019-02-07T11:06:58.986Z,11.30
2019-02-07T11:10:05.258Z,15.83
2019-02-07T11:13:18.428Z,18.57
2019-02-07T11:16:23.708Z,21.50
2019-02-07T11:19:29.535Z,12.87
2019-02-07T11:22:32.329Z,16.40
2019-02-07T11:25:42.292Z,15.60
2019-02-07T11:28:52.210Z,20.57
2019-02-07T11:31:56.749Z,20.77
2019-02-07T11:35:02.649Z,16.90
2019-02-07T11:38:02.423Z,21.20
2019-02-07T11:41:01.503Z,15.90
2019-02-07T11:43:56.946Z,20.73
2019-02-07T11:47:05.487Z,22.33
2019-02-07T11:50:09.192Z,22.50
2019-02-07T11:53:15.531Z,19.83
2019-02-07T11:56:22.249Z,22.20
2019-02-07T11:59:27.887Z,20.73
2019-02-07T12:02:35.476Z,16.30
2019-02-07T12:05:32.288Z,14.33
2019-02-07T12:08:48.420Z,14.77
2019-02-07T12:11:58.215Z,14.43
2019-02-07T12:15:04.539Z,13.20
2019-02-07T12:18:05.674Z,13.73
2019-02-07T12:21:11.477Z,11.40
2019-02-07T12:24:36.680Z,13.60
2019-02-07T12:27:42.020Z,13.73
2019-02-07T12:30:49.246Z,8.40
2019-02-07T12:34:02.197Z,13.37
2019-02-07T12:37:05.174Z,15.97
2019-02-07T12:40:12.280Z,13.70
2019-02-07T12:43:19.056Z,12.03
2019-02-07T12:46:25.331Z,16.00
2019-02-07T12:49:33.401Z,11.40
2019-02-07T12:52:42.221Z,13.03
2019-02-07T12:55:52.389Z,13.43
2019-02-07T12:58:56.093Z,13.50
2019-02-07T13:01:56.763Z,11.40
2019-02-07T13:05:06.961Z,12.37
2019-02-07T13:08:12.565Z,12.63
2019-02-07T13:11:26.943Z,13.50
2019-02-07T13:14:26.750Z,14.10
2019-02-07T13:17:36.997Z,13.53
2019-02-07T13:20:50.057Z,15.70
2019-02-07T13:24:12.284Z,12.47
2019-02-07T13:27:18.242Z,12.50
2019-02-07T13:30:33.898Z,11.30
2019-02-07T13:33:39.952Z,11.30
2019-02-07T13:36:45.497Z,10.33
2019-02-07T13:39:51.400Z,12.53
2019-02-07T13:42:56.638Z,11.47
2019-02-07T13:46:10.149Z,12.27
2019-02-07T13:49:17.025Z,14.77
2019-02-07T13:52:29.583Z,12.60
2019-02-07T13:55:32.055Z,11.97
2019-02-07T13:58:38.756Z,10.07
2019-02-07T14:01:45.504Z,7.23
2019-02-07T14:04:51.265Z,8.60
2019-02-07T14:08:07.218Z,7.13
2019-02-07T14:11:03.679Z,8.50
2019-02-07T14:14:20.005Z,4.73
2019-02-07T14:17:33.375Z,9.90
2019-02-07T14:20:39.308Z,8.23
2019-02-07T14:23:45.461Z,5.93
2019-02-07T14:26:51.137Z,7.80
2019-02-07T14:29:58.228Z,7.77
2019-02-07T14:33:04.039Z,9.37
2019-02-07T14:36:22.409Z,6.00
2019-02-07T14:39:41.260Z,11.10
2019-02-07T14:42:38.617Z,6.40
2019-02-07T14:45:36.099Z,6.70
2019-02-07T14:48:25.066Z,6.30
2019-02-07T14:51:12.636Z,10.03
2019-02-07T14:54:00.827Z,8.27
2019-02-07T14:56:49.007Z,7.77
2019-02-07T14:59:36.764Z,6.50
2019-02-07T15:02:24.519Z,8.53
2019-02-07T15:05:12.471Z,7.07
2019-02-07T15:08:00.162Z,5.73
2019-02-07T15:10:48.174Z,6.80
2019-02-07T15:13:36.148Z,5.00
2019-02-07T15:16:24.356Z,6.20
2019-02-07T15:19:12.095Z,8.80
2019-02-07T15:22:00.205Z,6.17
2019-02-07T15:24:47.804Z,5.50
2019-02-07T15:27:35.448Z,5.87
2019-02-07T15:30:23.328Z,6.80
2019-02-07T15:33:11.123Z,10.07
2019-02-07T15:35:59.099Z,5.10
2019-02-07T15:38:46.805Z,6.83
2019-02-07T15:41:34.413Z,5.43
2019-02-07T15:44:23.264Z,8.17
2019-02-07T15:47:12.163Z,4.53
2019-02-07T15:50:00.036Z,6.60
2019-02-07T15:52:47.888Z,6.97
2019-02-07T15:55:35.620Z,6.00
2019-02-07T15:58:33.274Z,5.70
2019-02-07T16:01:34.407Z,8.40
2019-02-07T16:04:28.225Z,8.77
2019-02-07T16:07:16.172Z,7.50
2019-02-07T16:10:07.171Z,5.33
2019-02-07T16:12:54.987Z,6.90
2019-02-07T16:15:42.870Z,6.50
2019-02-07T16:18:30.698Z,4.07
2019-02-07T16:21:18.402Z,7.77
2019-02-07T16:24:06.524Z,7.45
2019-02-07T16:26:54.513Z,18.33
2019-02-07T16:29:43.538Z,21.80
2019-02-07T16:32:31.659Z,21.30
2019-02-07T16:35:20.462Z,16.47
2019-02-07T16:38:08.152Z,17.00
2019-02-07T16:40:58.082Z,20.37
2019-02-07T16:43:45.861Z,18.77
2019-02-07T16:46:33.671Z,20.27
2019-02-07T16:49:21.455Z,22.77
2019-02-07T16:52:13.469Z,21.53
2019-02-07T16:55:01.227Z,21.00
2019-02-07T16:57:49.030Z,16.80
2019-02-07T17:00:36.713Z,19.50
2019-02-07T17:03:24.819Z,22.90
2019-02-07T17:06:13.288Z,21.00
2019-02-07T17:09:01.759Z,22.13
2019-02-07T17:11:49.823Z,21.57
2019-02-07T17:14:37.728Z,21.60
2019-02-07T17:17:25.652Z,18.10
2019-02-07T17:20:25.383Z,22.20
2019-02-07T17:23:13.031Z,10.60
2019-02-07T17:26:00.997Z,12.47
2019-02-07T17:28:49.171Z,17.37
2019-02-07T17:31:37.228Z,18.70
2019-02-07T17:34:25.116Z,16.07
2019-02-07T17:37:13.104Z,19.93
2019-02-07T17:40:01.189Z,17.50
2019-02-07T17:42:49.103Z,20.83
2019-02-07T17:45:36.794Z,10.20
2019-02-07T17:48:24.956Z,16.77
2019-02-07T17:51:22.593Z,20.10
2019-02-07T17:54:02.349Z,23.30
2019-02-07T17:56:50.140Z,20.13
2019-02-07T17:59:38.430Z,21.37
2019-02-07T18:02:26.408Z,17.27
2019-02-07T18:05:14.290Z,16.00
2019-02-07T18:08:02.860Z,16.47
2019-02-07T18:10:50.599Z,19.53
2019-02-07T18:13:38.536Z,18.33
2019-02-07T18:16:26.863Z,19.37
2019-02-07T18:19:14.972Z,16.60
2019-02-07T18:22:02.629Z,19.23
2019-02-07T18:24:52.170Z,18.60
2019-02-07T18:27:41.899Z,17.67
2019-02-07T18:30:29.101Z,18.73
2019-02-07T18:33:16.646Z,30.60
2019-02-07T18:36:03.994Z,16.53
2019-02-07T18:38:53.439Z,18.07
2019-02-07T18:41:41.713Z,18.30
2019-02-07T18:44:30.024Z,16.77
2019-02-07T18:47:17.731Z,19.00
2019-02-07T18:50:07.016Z,18.80
2019-02-07T18:52:54.903Z,18.43
2019-02-07T18:55:42.530Z,17.40
2019-02-07T18:58:30.402Z,17.27
2019-02-07T19:01:18.070Z,17.73
2019-02-07T19:04:06.492Z,16.43
2019-02-07T19:06:54.440Z,17.73
2019-02-07T19:09:42.871Z,17.90
2019-02-07T19:12:30.566Z,19.57
2019-02-07T19:15:21.641Z,19.47
2019-02-07T19:18:09.731Z,19.60
2019-02-07T19:20:57.768Z,21.30
2019-02-07T19:23:45.701Z,16.10
2019-02-07T19:26:33.601Z,18.53
2019-02-07T19:29:22.349Z,19.77
2019-02-07T19:32:11.215Z,18.13
2019-02-07T19:34:59.220Z,18.13
2019-02-07T19:37:47.441Z,20.00
2019-02-07T19:40:34.964Z,16.70
2019-02-07T19:43:22.891Z,17.70
2019-02-07T19:46:10.905Z,16.70
2019-02-07T19:48:58.837Z,18.60
2019-02-07T19:51:46.583Z,18.40
2019-02-07T19:54:34.201Z,18.33
2019-02-07T19:57:21.959Z,19.47
2019-02-07T20:00:16.131Z,12.50
2019-02-07T20:03:03.747Z,18.30
2019-02-07T20:05:51.866Z,15.73
2019-02-07T20:08:39.956Z,19.43
2019-02-07T20:11:27.800Z,16.73
2019-02-07T20:14:15.526Z,19.43
2019-02-07T20:17:03.556Z,20.10
2019-02-07T20:19:51.654Z,19.73
2019-02-07T20:22:39.498Z,17.50
2019-02-07T20:25:27.184Z,20.50
2019-02-07T20:28:15.772Z,18.80
2019-02-07T20:31:03.893Z,14.97
2019-02-07T20:33:51.456Z,17.00
2019-02-07T20:36:39.338Z,16.63
2019-02-07T20:39:27.326Z,19.10
2019-02-07T20:42:15.496Z,18.60
2019-02-07T20:45:03.364Z,19.17
2019-02-07T20:47:51.281Z,17.97
2019-02-07T20:50:39.040Z,17.60
2019-02-07T20:53:27.127Z,14.93
2019-02-07T20:56:14.723Z,16.27
2019-02-07T20:59:02.385Z,17.80
2019-02-07T21:01:50.183Z,16.97
2019-02-07T21:04:37.913Z,18.30
2019-02-07T21:07:25.832Z,18.13
2019-02-07T21:10:14.627Z,15.60
2019-02-07T21:13:02.401Z,19.70
2019-02-07T21:15:50.424Z,15.87
2019-02-07T21:18:38.351Z,18.80
2019-02-07T21:21:25.821Z,17.07
2019-02-07T21:24:13.628Z,18.27
2019-02-07T21:27:01.701Z,16.10
2019-02-07T21:29:49.251Z,17.00
2019-02-07T21:32:36.967Z,16.73
2019-02-07T21:35:25.039Z,18.13
2019-02-07T21:38:13.056Z,16.63
2019-02-07T21:41:00.889Z,16.20
2019-02-07T21:43:48.790Z,15.70
2019-02-07T21:46:36.527Z,16.73
2019-02-07T21:49:24.406Z,15.43
2019-02-07T21:52:12.269Z,13.67
2019-02-07T21:55:00.315Z,17.67
2019-02-07T21:57:48.107Z,17.60
2019-02-07T22:00:38.005Z,15.20
2019-02-07T22:03:25.813Z,16.43
2019-02-07T22:06:13.511Z,14.17
2019-02-07T22:09:01.415Z,10.03
2019-02-07T22:11:49.188Z,16.30
2019-02-07T22:14:37.091Z,12.43
2019-02-07T22:17:24.807Z,13.67
2019-02-07T22:20:15.326Z,15.37
2019-02-07T22:23:03.155Z,16.43
2019-02-07T22:25:51.068Z,14.87
2019-02-07T22:28:38.998Z,14.97
2019-02-07T22:31:26.589Z,12.80
2019-02-07T22:34:15.111Z,16.13
2019-02-07T22:37:02.787Z,16.37
2019-02-07T22:39:50.549Z,15.00
2019-02-07T22:42:38.534Z,11.73
2019-02-07T22:45:26.672Z,15.83
2019-02-07T22:48:14.415Z,14.40
2019-02-07T22:51:02.075Z,13.83
2019-02-07T22:53:50.593Z,13.03
2019-02-07T22:56:45.224Z,14.80
2019-02-07T22:59:27.923Z,13.20
2019-02-07T23:02:15.809Z,13.97
2019-02-07T23:05:04.039Z,13.23
2019-02-07T23:07:52.003Z,13.87
2019-02-07T23:10:39.692Z,12.50
2019-02-07T23:13:27.541Z,12.43
2019-02-07T23:16:15.609Z,13.00
2019-02-07T23:19:03.706Z,11.60
2019-02-07T23:21:51.603Z,7.40
2019-02-07T23:24:39.288Z,12.60
2019-02-07T23:27:27.224Z,13.00
2019-02-07T23:30:15.420Z,12.47
2019-02-07T23:33:03.464Z,12.87
2019-02-07T23:35:51.356Z,10.90
2019-02-07T23:38:40.535Z,10.77
2019-02-07T23:41:28.180Z,10.70
2019-02-07T23:44:16.276Z,10.50
2019-02-07T23:47:04.205Z,10.93
2019-02-07T23:49:52.220Z,10.43
2019-02-07T23:52:40.113Z,11.33
2019-02-07T23:55:28.107Z,11.80
2019-02-07T23:58:16.386Z,11.43
